createdAt,value
2022-09-23T00:01:26.103Z,79.38
2022-09-23T00:03:53.917Z,79.56
2022-09-23T00:06:23.917Z,79.59
2022-09-23T00:08:52.298Z,79.67
2022-09-23T00:11:24.387Z,79.60
2022-09-23T00:14:00.921Z,79.66
2022-09-23T00:16:34.264Z,79.89
2022-09-23T00:19:03.934Z,80.10
2022-09-23T00:21:31.926Z,79.98
2022-09-23T00:23:59.629Z,80.02
2022-09-23T00:26:27.859Z,79.97
2022-09-23T00:28:55.461Z,79.78
2022-09-23T00:31:26.079Z,79.71
2022-09-23T00:34:00.421Z,79.72
2022-09-23T00:36:29.914Z,79.79
2022-09-23T00:38:58.549Z,79.74
2022-09-23T00:41:27.235Z,79.82
2022-09-23T00:43:58.949Z,79.80
2022-09-23T00:46:37.150Z,79.98
2022-09-23T00:49:23.502Z,80.25
2022-09-23T00:51:59.749Z,80.56
2022-09-23T00:54:29.346Z,80.61
2022-09-23T00:56:59.854Z,80.65
2022-09-23T00:59:29.121Z,80.58
2022-09-23T01:02:00.338Z,80.76
2022-09-23T01:04:29.710Z,80.79
2022-09-23T01:06:57.315Z,80.84
2022-09-23T01:09:25.694Z,80.95
2022-09-23T01:12:36.433Z,80.93
2022-09-23T01:15:31.117Z,81.00
2022-09-23T01:18:29.314Z,81.06
2022-09-23T01:21:27.903Z,81.04
2022-09-23T01:25:04.850Z,81.18
2022-09-23T01:27:56.037Z,81.20
2022-09-23T01:31:01.269Z,81.15
2022-09-23T01:33:51.215Z,81.26
2022-09-23T01:36:27.123Z,81.27
2022-09-23T01:39:09.500Z,81.49
2022-09-23T01:41:57.770Z,81.37
2022-09-23T01:44:49.760Z,81.33
2022-09-23T01:47:44.943Z,81.78
2022-09-23T01:50:39.075Z,81.68
2022-09-23T01:53:17.960Z,81.46
2022-09-23T01:55:53.046Z,81.50
2022-09-23T01:58:48.218Z,81.67
2022-09-23T02:01:28.241Z,81.90
2022-09-23T02:04:30.901Z,82.02
2022-09-23T02:07:15.139Z,82.04
2022-09-23T02:09:50.982Z,82.18
2022-09-23T02:12:24.590Z,81.98
2022-09-23T02:14:56.158Z,82.16
2022-09-23T02:17:36.793Z,82.39
2022-09-23T02:20:07.446Z,82.54
2022-09-23T02:22:45.358Z,82.72
2022-09-23T02:25:13.523Z,82.79
2022-09-23T02:28:04.212Z,82.65
2022-09-23T02:30:46.592Z,82.77
2022-09-23T02:33:43.174Z,82.78
2022-09-23T02:36:38.255Z,82.94
2022-09-23T02:39:12.907Z,82.90
2022-09-23T02:42:10.183Z,83.02
2022-09-23T02:44:38.111Z,83.04
2022-09-23T02:47:06.216Z,82.77
2022-09-23T02:49:36.501Z,82.79
2022-09-23T02:52:07.580Z,82.83
2022-09-23T02:54:37.237Z,82.50
2022-09-23T02:57:08.329Z,82.62
2022-09-23T02:59:37.221Z,82.82
2022-09-23T03:02:40.014Z,82.88
2022-09-23T03:05:32.691Z,83.04
2022-09-23T03:08:20.805Z,83.10
2022-09-23T03:11:11.549Z,83.04
2022-09-23T03:14:16.927Z,82.94
2022-09-23T03:17:03.688Z,83.12
2022-09-23T03:19:48.356Z,83.02
2022-09-23T03:22:31.567Z,82.99
2022-09-23T03:25:13.195Z,82.99
2022-09-23T03:27:42.449Z,83.09
2022-09-23T03:30:11.141Z,83.34
2022-09-23T03:32:44.107Z,83.23
2022-09-23T03:35:13.275Z,83.23
2022-09-23T03:38:15.720Z,83.39
2022-09-23T03:40:50.833Z,83.31
2022-09-23T03:43:18.826Z,83.40
2022-09-23T03:45:47.385Z,83.54
2022-09-23T03:48:15.792Z,83.62
2022-09-23T03:50:44.447Z,83.68
2022-09-23T03:53:13.745Z,83.74
2022-09-23T03:55:41.374Z,83.71
2022-09-23T03:58:09.097Z,83.41
2022-09-23T04:00:37.238Z,83.62
2022-09-23T04:03:09.591Z,83.56
2022-09-23T04:05:39.420Z,83.91
2022-09-23T04:08:07.112Z,84.17
2022-09-23T04:10:34.828Z,84.28
2022-09-23T04:13:02.602Z,84.56
2022-09-23T04:15:30.228Z,84.76
2022-09-23T04:17:57.854Z,84.96
2022-09-23T04:20:29.765Z,85.16
2022-09-23T04:22:57.408Z,85.10
2022-09-23T04:25:25.037Z,85.14
2022-09-23T04:27:52.769Z,85.32
2022-09-23T04:30:20.426Z,85.51
2022-09-23T04:32:48.119Z,85.63
2022-09-23T04:35:15.779Z,85.71
2022-09-23T04:37:43.425Z,86.07
2022-09-23T04:40:11.366Z,86.13
2022-09-23T04:42:39.069Z,86.09
2022-09-23T04:45:08.173Z,86.46
2022-09-23T04:47:35.881Z,86.20
2022-09-23T04:50:03.900Z,86.14
2022-09-23T04:52:31.984Z,86.18
2022-09-23T04:54:59.644Z,86.25
2022-09-23T04:57:28.137Z,86.38
2022-09-23T04:59:57.430Z,86.54
2022-09-23T05:02:25.409Z,86.55
2022-09-23T05:04:53.166Z,86.59
2022-09-23T05:07:21.242Z,86.62
2022-09-23T05:09:49.181Z,86.65
2022-09-23T05:12:16.831Z,86.80
2022-09-23T05:14:44.472Z,86.80
2022-09-23T05:17:12.168Z,86.88
2022-09-23T05:19:39.920Z,87.14
2022-09-23T05:22:07.682Z,87.16
2022-09-23T05:24:35.338Z,87.26
2022-09-23T05:27:05.326Z,87.39
2022-09-23T05:29:34.849Z,87.28
2022-09-23T05:32:02.576Z,87.32
2022-09-23T05:34:30.546Z,87.41
2022-09-23T05:36:58.435Z,87.35
2022-09-23T05:39:26.138Z,87.57
2022-09-23T05:41:55.519Z,87.69
2022-09-23T05:44:23.167Z,87.67
2022-09-23T05:46:51.112Z,87.57
2022-09-23T05:49:18.964Z,87.46
2022-09-23T05:51:46.749Z,87.33
2022-09-23T05:54:14.454Z,87.47
2022-09-23T05:56:42.142Z,87.46
2022-09-23T05:59:10.252Z,87.35
2022-09-23T06:01:38.760Z,87.40
2022-09-23T06:04:11.814Z,87.57
2022-09-23T06:06:42.594Z,87.53
2022-09-23T06:09:14.992Z,87.47
2022-09-23T06:11:42.734Z,87.57
2022-09-23T06:14:14.862Z,87.71
2022-09-23T06:16:43.172Z,87.40
2022-09-23T06:19:11.178Z,87.40
2022-09-23T06:21:41.040Z,87.58
2022-09-23T06:24:11.231Z,87.35
2022-09-23T06:26:41.104Z,87.52
2022-09-23T06:29:11.951Z,87.29
2022-09-23T06:31:41.956Z,87.39
2022-09-23T06:34:13.729Z,87.46
2022-09-23T06:36:45.731Z,87.18
2022-09-23T06:39:15.273Z,87.26
2022-09-23T06:41:44.258Z,87.10
2022-09-23T06:44:15.607Z,87.02
2022-09-23T06:46:44.110Z,86.97
2022-09-23T06:49:13.386Z,86.92
2022-09-23T06:51:41.583Z,86.86
2022-09-23T06:54:11.013Z,86.93
2022-09-23T06:56:40.003Z,86.83
2022-09-23T06:59:13.078Z,86.79
2022-09-23T07:01:41.547Z,86.95
2022-09-23T07:04:10.636Z,86.88
2022-09-23T07:06:39.305Z,86.94
2022-09-23T07:09:08.226Z,86.86
2022-09-23T07:11:35.930Z,86.95
2022-09-23T07:14:03.839Z,87.03
2022-09-23T07:16:32.845Z,86.96
2022-09-23T07:19:00.549Z,86.91
2022-09-23T07:21:28.294Z,86.82
2022-09-23T07:23:58.166Z,86.77
2022-09-23T07:26:26.459Z,86.89
2022-09-23T07:29:04.758Z,86.88
2022-09-23T07:31:39.777Z,86.83
2022-09-23T07:34:12.619Z,86.83
2022-09-23T07:36:41.311Z,86.87
2022-09-23T07:39:12.570Z,86.73
2022-09-23T07:41:44.182Z,86.53
2022-09-23T07:44:12.350Z,86.40
2022-09-23T07:46:40.346Z,86.34
2022-09-23T07:49:08.747Z,86.17
2022-09-23T07:51:40.232Z,86.11
2022-09-23T07:54:14.693Z,85.96
2022-09-23T07:56:43.855Z,85.97
2022-09-23T07:59:18.193Z,86.00
2022-09-23T08:01:50.740Z,85.94
2022-09-23T08:04:31.153Z,85.68
2022-09-23T08:07:05.172Z,85.67
2022-09-23T08:09:41.265Z,85.45
2022-09-23T08:12:16.249Z,85.47
2022-09-23T08:14:44.802Z,85.51
2022-09-23T08:17:13.943Z,85.01
2022-09-23T08:19:42.022Z,84.84
2022-09-23T08:22:09.791Z,84.72
2022-09-23T08:24:37.663Z,84.64
2022-09-23T08:27:05.461Z,84.26
2022-09-23T08:29:33.135Z,84.36
2022-09-23T08:32:02.176Z,84.10
2022-09-23T08:34:30.319Z,84.05
2022-09-23T08:36:58.006Z,83.52
2022-09-23T08:39:26.130Z,83.82
2022-09-23T08:42:17.359Z,83.54
2022-09-23T08:44:51.744Z,83.45
2022-09-23T08:47:51.791Z,82.67
2022-09-23T08:50:37.093Z,81.66
2022-09-23T08:53:32.365Z,81.35
2022-09-23T08:56:07.349Z,81.15
2022-09-23T08:59:01.428Z,80.79
2022-09-23T09:01:55.816Z,80.24
2022-09-23T09:04:35.557Z,79.68
2022-09-23T09:07:36.185Z,80.52
2022-09-23T09:10:26.137Z,80.67
2022-09-23T09:13:07.601Z,80.75
2022-09-23T09:15:47.078Z,80.76
2022-09-23T09:18:21.425Z,80.18
2022-09-23T09:21:17.824Z,79.55
2022-09-23T09:23:57.414Z,80.19
2022-09-23T09:26:33.307Z,79.87
2022-09-23T09:29:41.300Z,79.84
2022-09-23T09:32:46.468Z,80.73
2022-09-23T09:36:08.910Z,80.62
2022-09-23T09:38:37.395Z,80.26
2022-09-23T09:41:17.758Z,80.23
2022-09-23T09:43:50.078Z,80.00
2022-09-23T09:46:39.343Z,79.62
2022-09-23T09:49:40.892Z,79.85
2022-09-23T09:52:23.208Z,79.49
2022-09-23T09:54:52.384Z,79.53
2022-09-23T09:57:36.056Z,79.08
2022-09-23T10:00:38.203Z,78.84
2022-09-23T10:03:15.350Z,77.60
2022-09-23T10:05:46.038Z,77.49
2022-09-23T10:08:32.243Z,76.43
2022-09-23T10:11:04.279Z,76.55
2022-09-23T10:13:32.789Z,77.12
2022-09-23T10:16:03.891Z,77.17
2022-09-23T10:18:48.185Z,76.98
2022-09-23T10:21:26.927Z,76.93
2022-09-23T10:23:58.655Z,76.87
2022-09-23T10:26:44.726Z,76.02
2022-09-23T10:29:28.939Z,75.68
2022-09-23T10:32:28.205Z,76.26
2022-09-23T10:35:14.558Z,76.28
2022-09-23T10:37:53.488Z,76.14
2022-09-23T10:40:51.101Z,76.32
2022-09-23T10:44:20.883Z,75.58
2022-09-23T10:47:04.142Z,76.49
2022-09-23T10:49:43.665Z,75.20
2022-09-23T10:52:48.968Z,74.87
2022-09-23T10:55:37.949Z,75.43
2022-09-23T10:58:32.871Z,75.08
2022-09-23T11:01:13.488Z,75.63
2022-09-23T11:04:32.333Z,75.75
2022-09-23T11:07:18.895Z,74.99
2022-09-23T11:10:29.063Z,75.45
2022-09-23T11:13:54.771Z,74.96
2022-09-23T11:16:47.600Z,74.77
2022-09-23T11:19:44.735Z,74.01
2022-09-23T11:23:07.212Z,73.46
2022-09-23T11:26:08.660Z,72.77
2022-09-23T11:29:12.204Z,72.43
2022-09-23T11:32:14.204Z,73.08
2022-09-23T11:35:16.142Z,72.82
2022-09-23T11:37:51.485Z,73.07
2022-09-23T11:40:33.565Z,73.15
2022-09-23T11:43:23.524Z,72.70
2022-09-23T11:46:13.776Z,71.59
2022-09-23T11:48:54.539Z,70.56
2022-09-23T11:51:29.224Z,70.91
2022-09-23T11:54:11.125Z,70.52
2022-09-23T11:56:49.202Z,68.74
2022-09-23T12:03:41.220Z,69.33
2022-09-23T12:06:39.938Z,68.67
2022-09-23T12:09:59.058Z,68.66
2022-09-23T12:12:55.992Z,68.43
2022-09-23T12:15:56.108Z,68.87
2022-09-23T12:18:35.848Z,69.30
2022-09-23T12:21:51.032Z,69.80
2022-09-23T12:24:59.506Z,69.90
2022-09-23T12:27:45.587Z,69.86
2022-09-23T12:30:29.124Z,70.22
2022-09-23T12:33:18.090Z,69.57
2022-09-23T12:35:46.538Z,70.03
2022-09-23T12:38:34.496Z,69.85
2022-09-23T12:41:20.573Z,69.45
2022-09-23T12:44:37.600Z,69.06
2022-09-23T12:47:28.039Z,68.92
2022-09-23T12:50:00.985Z,69.07
2022-09-23T12:52:33.058Z,68.31
2022-09-23T12:55:22.074Z,67.60
2022-09-23T12:57:50.109Z,68.02
2022-09-23T13:00:22.682Z,67.60
2022-09-23T13:03:10.203Z,67.33
2022-09-23T13:06:09.982Z,67.55
2022-09-23T13:08:41.681Z,66.61
2022-09-23T13:11:32.327Z,65.26
2022-09-23T13:14:04.880Z,64.87
2022-09-23T13:16:45.014Z,65.25
2022-09-23T13:19:28.046Z,65.06
2022-09-23T13:22:09.102Z,64.97
2022-09-23T13:25:02.770Z,65.16
2022-09-23T13:27:34.017Z,66.41
2022-09-23T13:30:19.364Z,66.05
2022-09-23T13:33:04.497Z,65.96
2022-09-23T13:35:39.535Z,66.01
2022-09-23T13:38:26.241Z,66.03
2022-09-23T13:41:17.904Z,66.50
2022-09-23T13:43:59.626Z,66.16
2022-09-23T13:46:35.189Z,66.73
2022-09-23T13:49:03.131Z,65.67
2022-09-23T13:51:35.059Z,64.35
2022-09-23T13:54:05.135Z,64.58
2022-09-23T13:56:35.342Z,64.30
2022-09-23T13:59:25.013Z,64.41
2022-09-23T14:02:05.148Z,64.72
2022-09-23T14:04:32.900Z,64.37
2022-09-23T14:07:02.512Z,64.15
2022-09-23T14:09:31.823Z,64.53
2022-09-23T14:12:02.059Z,64.89
2022-09-23T14:14:30.953Z,64.66
2022-09-23T14:16:59.405Z,64.14
2022-09-23T14:19:27.274Z,64.23
2022-09-23T14:21:56.595Z,64.28
2022-09-23T14:24:34.095Z,64.81
2022-09-23T14:27:15.894Z,64.84
2022-09-23T14:29:48.031Z,64.77
2022-09-23T14:32:28.656Z,65.37
2022-09-23T14:35:05.327Z,65.30
2022-09-23T14:37:56.937Z,65.44
2022-09-23T14:40:33.412Z,64.52
2022-09-23T14:43:17.519Z,64.72
2022-09-23T14:45:50.481Z,64.25
2022-09-23T14:48:23.814Z,63.95
2022-09-23T14:50:57.286Z,63.86
2022-09-23T14:53:43.600Z,63.43
2022-09-23T14:56:19.884Z,63.17
2022-09-23T14:59:00.131Z,63.64
2022-09-23T15:01:30.857Z,63.86
2022-09-23T15:04:21.648Z,64.17
2022-09-23T15:06:59.293Z,64.46
2022-09-23T15:09:40.596Z,63.69
2022-09-23T15:12:12.891Z,64.07
2022-09-23T15:14:46.543Z,64.03
2022-09-23T15:17:37.569Z,63.74
2022-09-23T15:20:18.630Z,64.04
2022-09-23T15:22:50.872Z,63.48
2022-09-23T15:25:21.330Z,63.54
2022-09-23T15:28:03.420Z,63.64
2022-09-23T15:30:32.163Z,63.23
2022-09-23T15:32:59.989Z,62.91
2022-09-23T15:35:31.798Z,61.12
2022-09-23T15:38:02.706Z,61.15
2022-09-23T15:40:33.690Z,61.71
2022-09-23T15:43:21.034Z,61.86
2022-09-23T15:45:54.062Z,62.24
2022-09-23T15:48:35.760Z,62.35
2022-09-23T15:51:08.137Z,60.84
2022-09-23T15:53:38.134Z,61.88
2022-09-23T15:56:06.376Z,62.24
2022-09-23T15:58:34.100Z,63.05
2022-09-23T16:01:02.091Z,63.38
2022-09-23T16:03:29.918Z,63.83
2022-09-23T16:06:05.870Z,64.07
2022-09-23T16:08:33.576Z,64.51
2022-09-23T16:11:01.507Z,64.17
2022-09-23T16:13:29.381Z,64.21
2022-09-23T16:15:57.174Z,64.79
2022-09-23T16:18:25.070Z,64.83
2022-09-23T16:20:52.857Z,64.56
2022-09-23T16:23:35.444Z,65.06
2022-09-23T16:26:08.343Z,65.12
2022-09-23T16:28:36.786Z,65.21
2022-09-23T16:31:04.788Z,65.61
2022-09-23T16:33:32.587Z,65.83
2022-09-23T16:36:03.554Z,65.79
2022-09-23T16:38:32.545Z,65.99
2022-09-23T16:41:00.705Z,66.13
2022-09-23T16:43:39.365Z,65.78
2022-09-23T16:46:13.245Z,65.97
2022-09-23T16:48:44.994Z,66.20
2022-09-23T16:51:20.465Z,66.35
2022-09-23T16:53:50.063Z,66.51
2022-09-23T16:56:23.052Z,66.72
2022-09-23T16:58:55.403Z,66.94
2022-09-23T17:01:47.531Z,66.89
2022-09-23T17:04:19.343Z,66.45
2022-09-23T17:06:52.675Z,67.27
2022-09-23T17:09:24.767Z,68.42
2022-09-23T17:12:22.088Z,69.33
2022-09-23T17:14:49.921Z,70.08
2022-09-23T17:17:17.629Z,70.66
2022-09-23T17:19:45.303Z,70.41
2022-09-23T17:22:13.583Z,70.21
2022-09-23T17:24:41.382Z,70.50
2022-09-23T17:27:09.144Z,70.19
2022-09-23T17:29:36.936Z,69.96
2022-09-23T17:32:04.908Z,70.05
2022-09-23T17:34:33.442Z,70.38
2022-09-23T17:37:02.461Z,69.82
2022-09-23T17:39:31.721Z,70.35
2022-09-23T17:41:59.435Z,70.22
2022-09-23T17:44:27.194Z,69.96
2022-09-23T17:46:55.061Z,69.77
2022-09-23T17:49:24.156Z,70.22
2022-09-23T17:51:51.966Z,69.92
2022-09-23T17:54:19.645Z,70.24
2022-09-23T17:56:47.326Z,70.23
2022-09-23T17:59:14.943Z,70.24
2022-09-23T18:01:42.733Z,70.38
2022-09-23T18:04:10.835Z,70.49
2022-09-23T18:06:38.595Z,70.65
2022-09-23T18:09:08.650Z,70.49
2022-09-23T18:11:44.151Z,70.52
2022-09-23T18:14:20.418Z,70.79
2022-09-23T18:16:51.829Z,71.07
2022-09-23T18:19:23.294Z,70.94
2022-09-23T18:21:55.810Z,70.95
2022-09-23T18:24:33.043Z,71.27
2022-09-23T18:27:02.429Z,71.13
2022-09-23T18:29:30.333Z,71.32
2022-09-23T18:31:59.250Z,71.78
2022-09-23T18:34:28.665Z,71.92
2022-09-23T18:36:56.378Z,72.53
2022-09-23T18:39:24.188Z,72.61
2022-09-23T18:41:51.988Z,73.07
2022-09-23T18:44:20.106Z,72.87
2022-09-23T18:46:47.750Z,72.95
2022-09-23T18:49:44.551Z,73.36
2022-09-23T18:52:12.243Z,73.57
2022-09-23T18:54:39.974Z,73.75
2022-09-23T18:57:07.969Z,73.90
2022-09-23T18:59:35.618Z,73.96
2022-09-23T19:02:03.614Z,74.37
2022-09-23T19:04:31.705Z,74.38
2022-09-23T19:06:59.459Z,74.53
2022-09-23T19:09:27.146Z,74.67
2022-09-23T19:11:55.824Z,74.79
2022-09-23T19:14:23.587Z,74.71
2022-09-23T19:16:51.316Z,74.90
2022-09-23T19:19:19.522Z,74.83
2022-09-23T19:21:47.303Z,74.95
2022-09-23T19:24:20.013Z,75.17
2022-09-23T19:26:48.669Z,75.31
2022-09-23T19:29:22.012Z,75.55
2022-09-23T19:31:50.926Z,75.58
2022-09-23T19:34:24.798Z,75.33
2022-09-23T19:36:57.351Z,75.62
2022-09-23T19:39:31.049Z,75.79
2022-09-23T19:41:59.320Z,76.05
2022-09-23T19:44:27.734Z,76.07
2022-09-23T19:46:57.101Z,76.33
2022-09-23T19:49:25.712Z,76.48
2022-09-23T19:51:55.987Z,76.81
2022-09-23T19:54:26.826Z,77.04
2022-09-23T19:56:55.192Z,77.02
2022-09-23T19:59:22.967Z,77.26
2022-09-23T20:01:50.761Z,77.11
2022-09-23T20:04:18.529Z,77.12
2022-09-23T20:06:47.110Z,77.13
2022-09-23T20:09:15.050Z,77.28
2022-09-23T20:11:42.951Z,77.25
2022-09-23T20:14:13.108Z,77.14
2022-09-23T20:16:40.930Z,77.13
2022-09-23T20:19:10.154Z,77.04
2022-09-23T20:21:38.025Z,77.37
2022-09-23T20:24:06.844Z,77.21
2022-09-23T20:26:53.775Z,77.49
2022-09-23T20:29:22.182Z,77.81
2022-09-23T20:31:50.025Z,78.00
2022-09-23T20:34:19.538Z,78.07
2022-09-23T20:36:47.251Z,77.98
2022-09-23T20:39:14.995Z,77.89
2022-09-23T20:41:43.408Z,77.88
2022-09-23T20:44:12.471Z,77.94
2022-09-23T20:46:48.177Z,78.03
2022-09-23T20:49:18.066Z,78.19
2022-09-23T20:51:48.917Z,78.13
2022-09-23T20:54:20.285Z,78.03
2022-09-23T20:56:48.147Z,78.07
2022-09-23T20:59:17.893Z,77.91
2022-09-23T21:01:47.860Z,77.77
2022-09-23T21:04:15.793Z,77.75
2022-09-23T21:06:43.819Z,77.78
2022-09-23T21:09:11.585Z,77.90
2022-09-23T21:11:39.242Z,77.95
2022-09-23T21:14:07.157Z,78.06
2022-09-23T21:16:35.206Z,78.14
2022-09-23T21:19:03.834Z,78.17
2022-09-23T21:21:31.603Z,78.16
2022-09-23T21:24:17.218Z,78.11
2022-09-23T21:26:47.303Z,78.22
2022-09-23T21:29:15.412Z,78.24
2022-09-23T21:31:43.333Z,78.26
2022-09-23T21:34:12.625Z,78.34
2022-09-23T21:36:43.301Z,78.27
2022-09-23T21:39:12.289Z,78.11
2022-09-23T21:41:40.836Z,78.13
2022-09-23T21:44:08.769Z,78.30
2022-09-23T21:46:37.275Z,78.04
2022-09-23T21:49:05.653Z,78.03
2022-09-23T21:51:42.637Z,78.06
2022-09-23T21:54:15.648Z,78.11
2022-09-23T21:56:44.677Z,78.33
2022-09-23T21:59:12.916Z,78.37
2022-09-23T22:01:50.532Z,78.36
2022-09-23T22:04:21.881Z,78.33
2022-09-23T22:06:49.640Z,78.50
2022-09-23T22:09:20.733Z,78.57
2022-09-23T22:12:07.337Z,78.49
2022-09-23T22:14:36.046Z,78.54
2022-09-23T22:17:07.492Z,78.70
2022-09-23T22:19:42.741Z,78.62
2022-09-23T22:22:17.654Z,78.91
2022-09-23T22:24:47.929Z,79.02
2022-09-23T22:27:19.116Z,79.24
2022-09-23T22:30:05.657Z,79.24
2022-09-23T22:32:53.026Z,79.34
2022-09-23T22:35:22.679Z,79.56
2022-09-23T22:37:50.566Z,79.45
2022-09-23T22:40:18.498Z,79.51
2022-09-23T22:42:46.641Z,79.70
2022-09-23T22:45:14.695Z,79.93
2022-09-23T22:47:45.506Z,80.10
2022-09-23T22:50:15.402Z,80.21
2022-09-23T22:52:44.089Z,80.48
2022-09-23T22:55:12.290Z,80.56
2022-09-23T22:57:40.096Z,80.54
2022-09-23T23:00:09.432Z,80.66
2022-09-23T23:02:37.151Z,80.92
2022-09-23T23:05:05.479Z,80.92
2022-09-23T23:07:35.015Z,81.08
2022-09-23T23:10:04.630Z,81.41
2022-09-23T23:12:33.458Z,81.35
2022-09-23T23:15:01.220Z,81.40
2022-09-23T23:17:29.841Z,81.78
2022-09-23T23:19:57.938Z,81.68
2022-09-23T23:22:28.581Z,81.82
2022-09-23T23:24:56.755Z,81.75
2022-09-23T23:27:24.550Z,81.77
2022-09-23T23:29:52.221Z,82.07
2022-09-23T23:32:19.851Z,82.18
2022-09-23T23:34:47.546Z,82.22
2022-09-23T23:37:20.090Z,82.34
2022-09-23T23:39:48.596Z,82.34
2022-09-23T23:42:16.251Z,82.57
2022-09-23T23:44:44.398Z,82.48
2022-09-23T23:47:12.486Z,82.52
2022-09-23T23:49:40.558Z,82.54
2022-09-23T23:52:08.355Z,82.49
2022-09-23T23:54:35.991Z,82.58
2022-09-23T23:57:03.793Z,82.65
2022-09-23T23:59:31.563Z,82.93
